createdAt,value
2023-02-27T00:00:22.271Z,3.13
2023-02-27T00:03:25.057Z,3.11
2023-02-27T00:06:28.049Z,3.15
2023-02-27T00:09:30.689Z,2.96
2023-02-27T00:12:37.903Z,3.02
2023-02-27T00:15:41.045Z,3.09
2023-02-27T00:18:43.470Z,3.12
2023-02-27T00:21:46.300Z,3.07
2023-02-27T00:24:48.605Z,3.03
2023-02-27T00:27:51.452Z,3.02
2023-02-27T00:30:55.665Z,2.93
2023-02-27T00:33:58.497Z,2.91
2023-02-27T00:37:00.836Z,2.94
2023-02-27T00:40:05.437Z,2.92
2023-02-27T00:43:08.080Z,2.79
2023-02-27T00:46:10.928Z,2.74
2023-02-27T00:49:13.430Z,2.60
2023-02-27T00:52:16.032Z,2.73
2023-02-27T00:55:18.465Z,2.69
2023-02-27T00:58:21.086Z,2.63
2023-02-27T01:01:23.389Z,2.63
2023-02-27T01:04:26.368Z,2.54
2023-02-27T01:07:29.106Z,2.42
2023-02-27T01:10:31.963Z,2.53
2023-02-27T01:13:34.322Z,2.49
2023-02-27T01:16:37.020Z,2.57
2023-02-27T01:19:39.552Z,2.43
2023-02-27T01:22:42.377Z,2.56
2023-02-27T01:25:49.229Z,2.62
2023-02-27T01:28:51.965Z,2.62
2023-02-27T01:31:54.490Z,2.49
2023-02-27T01:34:57.271Z,2.48
2023-02-27T01:38:02.004Z,2.46
2023-02-27T01:41:07.253Z,2.47
2023-02-27T01:44:12.203Z,2.47
2023-02-27T01:47:14.842Z,2.28
2023-02-27T01:50:18.439Z,2.43
2023-02-27T01:53:25.989Z,2.46
2023-02-27T01:56:30.910Z,2.43
2023-02-27T01:59:35.854Z,2.56
2023-02-27T02:02:42.342Z,2.45
2023-02-27T02:05:46.888Z,2.48
2023-02-27T02:08:51.720Z,2.41
2023-02-27T02:11:57.060Z,2.56
2023-02-27T02:14:59.796Z,2.42
2023-02-27T02:18:17.718Z,2.43
2023-02-27T02:22:08.430Z,2.50
2023-02-27T02:25:18.040Z,2.51
2023-02-27T02:28:54.553Z,2.54
2023-02-27T02:32:21.790Z,2.53
2023-02-27T02:35:42.712Z,2.58
2023-02-27T02:39:06.371Z,2.54
2023-02-27T02:42:25.842Z,2.60
2023-02-27T02:45:41.666Z,2.63
2023-02-27T02:48:48.757Z,2.54
2023-02-27T02:52:20.640Z,2.46
2023-02-27T02:55:30.819Z,2.57
2023-02-27T02:58:42.577Z,2.58
2023-02-27T03:01:51.975Z,2.56
2023-02-27T03:05:00.954Z,2.51
2023-02-27T03:08:10.992Z,2.54
2023-02-27T03:11:13.436Z,2.47
2023-02-27T03:14:37.821Z,2.48
2023-02-27T03:17:50.467Z,2.62
2023-02-27T03:20:58.282Z,2.54
2023-02-27T03:24:04.046Z,2.62
2023-02-27T03:27:09.769Z,2.68
2023-02-27T03:30:29.781Z,2.47
2023-02-27T03:33:38.906Z,2.57
2023-02-27T03:36:50.054Z,2.40
2023-02-27T03:40:04.490Z,2.54
2023-02-27T03:43:19.158Z,2.49
2023-02-27T03:46:24.825Z,2.41
2023-02-27T03:49:27.333Z,2.53
2023-02-27T03:52:30.241Z,2.51
2023-02-27T03:55:40.047Z,2.61
2023-02-27T03:58:42.767Z,2.53
2023-02-27T04:01:45.508Z,2.71
2023-02-27T04:04:48.289Z,2.56
2023-02-27T04:08:18.926Z,2.64
2023-02-27T04:11:48.652Z,2.56
2023-02-27T04:15:09.597Z,2.52
2023-02-27T04:18:32.450Z,2.61
2023-02-27T04:22:05.090Z,2.57
2023-02-27T04:25:13.556Z,2.41
2023-02-27T04:28:31.190Z,2.58
2023-02-27T04:32:00.278Z,2.49
2023-02-27T04:35:18.128Z,2.59
2023-02-27T04:38:56.253Z,2.53
2023-02-27T04:42:03.370Z,2.52
2023-02-27T04:45:10.650Z,2.49
2023-02-27T04:48:26.132Z,2.61
2023-02-27T04:51:55.736Z,2.38
2023-02-27T04:55:25.294Z,2.39
2023-02-27T04:58:30.954Z,2.45
2023-02-27T05:01:40.049Z,2.36
2023-02-27T05:04:45.020Z,2.48
2023-02-27T05:07:56.801Z,2.41
2023-02-27T05:11:13.929Z,2.45
2023-02-27T05:14:42.538Z,2.51
2023-02-27T05:17:56.817Z,2.54
2023-02-27T05:21:27.929Z,2.36
2023-02-27T05:24:49.334Z,2.37
2023-02-27T05:27:59.773Z,2.50
2023-02-27T05:31:37.644Z,2.50
2023-02-27T05:34:49.264Z,2.46
2023-02-27T05:38:04.870Z,2.42
2023-02-27T05:41:13.716Z,2.31
2023-02-27T05:44:23.397Z,2.41
2023-02-27T05:47:30.643Z,2.27
2023-02-27T05:50:37.403Z,2.42
2023-02-27T05:53:46.261Z,2.47
2023-02-27T05:56:52.560Z,2.32
2023-02-27T06:00:06.227Z,2.39
2023-02-27T06:03:14.359Z,2.28
2023-02-27T06:06:19.370Z,2.37
2023-02-27T06:09:22.182Z,2.43
2023-02-27T06:12:25.373Z,2.37
2023-02-27T06:15:28.415Z,2.38
2023-02-27T06:18:31.253Z,2.50
2023-02-27T06:21:33.674Z,2.34
2023-02-27T06:24:36.874Z,2.40
2023-02-27T06:27:39.410Z,2.54
2023-02-27T06:30:42.142Z,2.50
2023-02-27T06:33:44.508Z,2.40
2023-02-27T06:36:47.676Z,2.56
2023-02-27T06:39:50.781Z,2.59
2023-02-27T06:42:53.487Z,2.59
2023-02-27T06:45:56.319Z,2.65
2023-02-27T06:48:59.310Z,2.66
2023-02-27T06:52:01.804Z,2.67
2023-02-27T06:55:06.316Z,2.72
2023-02-27T06:58:08.756Z,2.78
2023-02-27T07:01:12.239Z,2.88
2023-02-27T07:04:15.691Z,2.98
2023-02-27T07:07:33.798Z,3.02
2023-02-27T07:10:40.298Z,3.02
2023-02-27T07:13:42.979Z,2.95
2023-02-27T07:16:47.126Z,3.12
2023-02-27T07:19:49.858Z,3.15
2023-02-27T07:22:52.201Z,2.99
2023-02-27T07:25:54.867Z,3.18
2023-02-27T07:28:57.266Z,3.11
2023-02-27T07:32:01.517Z,3.15
2023-02-27T07:35:04.213Z,2.97
2023-02-27T07:38:06.929Z,2.81
2023-02-27T07:41:15.885Z,3.08
2023-02-27T07:44:26.652Z,3.09
2023-02-27T07:47:30.381Z,3.25
2023-02-27T07:50:33.177Z,3.22
2023-02-27T07:53:35.617Z,3.37
2023-02-27T07:56:38.200Z,3.20
2023-02-27T07:59:40.554Z,3.53
2023-02-27T08:02:43.302Z,3.68
2023-02-27T08:05:46.123Z,3.58
2023-02-27T08:08:48.954Z,3.86
2023-02-27T08:11:51.639Z,4.07
2023-02-27T08:14:54.012Z,4.01
2023-02-27T08:17:56.647Z,4.00
2023-02-27T08:20:59.101Z,3.66
2023-02-27T08:24:02.021Z,3.32
2023-02-27T08:27:04.542Z,3.31
2023-02-27T08:30:09.624Z,3.59
2023-02-27T08:33:12.116Z,3.45
2023-02-27T08:36:15.052Z,3.59
2023-02-27T08:39:18.653Z,3.38
2023-02-27T08:42:21.257Z,3.77
2023-02-27T08:45:23.761Z,3.78
2023-02-27T08:48:26.509Z,3.98
2023-02-27T08:51:29.449Z,4.09
2023-02-27T08:54:32.380Z,3.97
2023-02-27T08:57:34.821Z,4.24
2023-02-27T09:00:37.455Z,4.05
2023-02-27T09:03:39.863Z,4.21
2023-02-27T09:06:42.496Z,4.06
2023-02-27T09:09:45.185Z,4.27
2023-02-27T09:12:49.288Z,4.19
2023-02-27T09:15:51.716Z,4.33
2023-02-27T09:18:54.392Z,4.54
2023-02-27T09:21:56.958Z,4.48
2023-02-27T09:25:00.278Z,4.41
2023-02-27T09:28:03.150Z,4.50
2023-02-27T09:31:09.638Z,4.49
2023-02-27T09:34:12.020Z,4.83
2023-02-27T09:37:15.588Z,4.96
2023-02-27T09:40:41.769Z,4.78
2023-02-27T09:43:47.767Z,4.90
2023-02-27T09:46:50.615Z,4.53
2023-02-27T09:50:27.536Z,4.56
2023-02-27T09:53:39.220Z,4.84
2023-02-27T09:57:03.826Z,5.03
2023-02-27T10:00:32.800Z,4.69
2023-02-27T10:03:57.096Z,4.88
2023-02-27T10:07:19.472Z,5.22
2023-02-27T10:10:30.319Z,5.32
2023-02-27T10:14:06.565Z,5.29
2023-02-27T10:17:22.840Z,5.02
2023-02-27T10:20:37.332Z,5.34
2023-02-27T10:24:01.794Z,5.31
2023-02-27T10:27:07.847Z,5.28
2023-02-27T10:30:28.311Z,5.39
2023-02-27T10:33:42.091Z,5.61
2023-02-27T10:36:47.256Z,5.76
2023-02-27T10:39:59.429Z,5.33
2023-02-27T10:43:06.107Z,5.27
2023-02-27T10:46:25.363Z,5.14
2023-02-27T10:49:32.851Z,5.28
2023-02-27T10:52:48.992Z,5.12
2023-02-27T10:56:04.790Z,5.35
2023-02-27T10:59:17.273Z,5.34
2023-02-27T11:02:25.169Z,5.26
2023-02-27T11:05:33.333Z,5.44
2023-02-27T11:08:36.375Z,5.36
2023-02-27T11:11:39.216Z,5.77
2023-02-27T11:14:53.549Z,5.92
2023-02-27T11:18:19.853Z,6.04
2023-02-27T11:21:30.681Z,6.16
2023-02-27T11:24:34.401Z,6.40
2023-02-27T11:27:37.096Z,6.15
2023-02-27T11:30:39.550Z,6.23
2023-02-27T11:33:51.952Z,6.11
2023-02-27T11:37:07.421Z,5.92
2023-02-27T11:40:16.567Z,6.10
2023-02-27T11:43:47.170Z,5.99
2023-02-27T11:46:50.168Z,6.09
2023-02-27T11:50:18.775Z,6.12
2023-02-27T11:53:33.681Z,5.91
2023-02-27T11:57:20.353Z,6.01
2023-02-27T12:00:22.897Z,6.19
2023-02-27T12:03:33.733Z,6.42
2023-02-27T12:06:50.161Z,6.80
2023-02-27T12:10:14.177Z,6.75
2023-02-27T12:13:30.066Z,6.49
2023-02-27T12:16:42.489Z,6.79
2023-02-27T12:20:14.939Z,6.78
2023-02-27T12:23:23.938Z,6.87
2023-02-27T12:26:32.589Z,6.79
2023-02-27T12:29:41.573Z,6.78
2023-02-27T12:32:52.938Z,6.62
2023-02-27T12:36:05.079Z,6.68
2023-02-27T12:39:18.431Z,6.66
2023-02-27T12:42:54.328Z,6.54
2023-02-27T12:46:18.515Z,6.58
2023-02-27T12:49:50.027Z,6.74
2023-02-27T12:53:22.607Z,6.68
2023-02-27T12:56:37.329Z,6.66
2023-02-27T12:59:51.425Z,6.62
2023-02-27T13:03:00.930Z,6.71
2023-02-27T13:06:32.536Z,6.75
2023-02-27T13:09:56.012Z,6.70
2023-02-27T13:13:31.677Z,6.69
2023-02-27T13:16:40.819Z,6.67
2023-02-27T13:19:52.979Z,6.52
2023-02-27T13:23:07.952Z,6.36
2023-02-27T13:26:37.072Z,6.24
2023-02-27T13:29:47.689Z,6.03
2023-02-27T13:33:15.378Z,6.29
2023-02-27T13:36:24.557Z,6.54
2023-02-27T13:39:48.939Z,6.64
2023-02-27T13:42:53.299Z,6.60
2023-02-27T13:45:58.973Z,6.46
2023-02-27T13:49:04.419Z,6.46
2023-02-27T13:52:07.138Z,6.48
2023-02-27T13:55:28.064Z,6.34
2023-02-27T13:58:30.704Z,6.40
2023-02-27T14:01:35.060Z,6.34
2023-02-27T14:04:58.157Z,6.42
2023-02-27T14:08:05.572Z,6.44
2023-02-27T14:11:25.065Z,6.37
2023-02-27T14:14:44.439Z,6.55
2023-02-27T14:17:50.964Z,6.51
2023-02-27T14:20:54.974Z,6.50
2023-02-27T14:23:57.779Z,6.68
2023-02-27T14:27:01.049Z,6.60
2023-02-27T14:30:10.285Z,6.80
2023-02-27T14:33:39.191Z,6.72
2023-02-27T14:36:49.995Z,6.68
2023-02-27T14:39:55.093Z,6.39
2023-02-27T14:43:00.696Z,6.43
2023-02-27T14:46:28.567Z,6.25
2023-02-27T14:49:34.623Z,6.36
2023-02-27T14:52:43.856Z,6.36
2023-02-27T14:55:57.412Z,6.20
2023-02-27T14:59:07.486Z,6.42
2023-02-27T15:02:30.744Z,6.21
2023-02-27T15:05:35.058Z,6.22
2023-02-27T15:08:40.049Z,6.38
2023-02-27T15:11:46.508Z,6.20
2023-02-27T15:15:03.111Z,6.20
2023-02-27T15:18:13.454Z,6.10
2023-02-27T15:21:17.708Z,6.12
2023-02-27T15:24:24.922Z,6.05
2023-02-27T15:27:28.498Z,6.01
2023-02-27T15:30:31.740Z,6.02
2023-02-27T15:33:34.484Z,5.94
2023-02-27T15:36:39.134Z,5.81
2023-02-27T15:39:41.928Z,5.84
2023-02-27T15:42:44.924Z,5.80
2023-02-27T15:45:48.438Z,5.64
2023-02-27T15:48:53.887Z,5.67
2023-02-27T15:52:02.609Z,5.73
2023-02-27T15:55:11.328Z,5.68
2023-02-27T15:58:35.677Z,5.52
2023-02-27T16:01:39.136Z,5.56
2023-02-27T16:04:45.969Z,5.51
2023-02-27T16:07:49.964Z,5.45
2023-02-27T16:10:53.242Z,5.20
2023-02-27T16:13:56.417Z,5.27
2023-02-27T16:16:59.088Z,5.29
2023-02-27T16:20:22.026Z,5.27
2023-02-27T16:23:27.797Z,5.28
2023-02-27T16:26:32.212Z,5.28
2023-02-27T16:29:40.220Z,5.25
2023-02-27T16:32:46.645Z,5.25
2023-02-27T16:35:50.988Z,5.23
2023-02-27T16:38:53.920Z,5.32
2023-02-27T16:41:58.866Z,5.14
2023-02-27T16:45:01.279Z,5.22
2023-02-27T16:48:05.302Z,5.16
2023-02-27T16:51:15.065Z,5.03
2023-02-27T16:54:18.292Z,5.02
2023-02-27T16:57:24.833Z,4.90
2023-02-27T17:00:27.564Z,4.96
2023-02-27T17:03:30.060Z,4.96
2023-02-27T17:06:33.785Z,4.99
2023-02-27T17:09:36.194Z,4.94
2023-02-27T17:12:39.205Z,4.91
2023-02-27T17:15:41.550Z,4.92
2023-02-27T17:18:44.194Z,4.90
2023-02-27T17:21:46.648Z,4.90
2023-02-27T17:24:49.452Z,4.88
2023-02-27T17:27:52.050Z,4.89
2023-02-27T17:30:55.041Z,4.85
2023-02-27T17:33:57.568Z,4.86
2023-02-27T17:37:00.268Z,4.81
2023-02-27T17:40:04.706Z,4.79
2023-02-27T17:43:07.408Z,4.67
2023-02-27T17:46:11.259Z,4.71
2023-02-27T17:49:13.864Z,4.73
2023-02-27T17:52:16.372Z,4.53
2023-02-27T17:55:19.184Z,4.54
2023-02-27T17:58:21.548Z,4.63
2023-02-27T18:01:26.101Z,4.50
2023-02-27T18:04:29.043Z,4.60
2023-02-27T18:07:31.717Z,4.47
2023-02-27T18:10:34.474Z,4.55
2023-02-27T18:13:37.251Z,4.54
2023-02-27T18:16:40.034Z,4.38
2023-02-27T18:19:43.257Z,4.30
2023-02-27T18:22:45.987Z,4.38
2023-02-27T18:25:54.674Z,4.24
2023-02-27T18:29:03.408Z,4.39
2023-02-27T18:32:08.962Z,4.09
2023-02-27T18:35:12.553Z,3.70
2023-02-27T18:38:15.223Z,3.66
2023-02-27T18:41:17.968Z,3.58
2023-02-27T18:44:20.669Z,3.41
2023-02-27T18:47:23.422Z,3.41
2023-02-27T18:50:25.912Z,3.27
2023-02-27T18:53:28.672Z,3.28
2023-02-27T18:56:32.952Z,3.07
2023-02-27T18:59:35.815Z,3.03
2023-02-27T19:02:41.625Z,2.93
2023-02-27T19:05:44.609Z,2.79
2023-02-27T19:08:47.177Z,2.90
2023-02-27T19:11:49.961Z,2.65
2023-02-27T19:14:52.484Z,2.68
2023-02-27T19:17:55.181Z,2.74
2023-02-27T19:21:03.445Z,2.70
2023-02-27T19:24:07.056Z,2.67
2023-02-27T19:27:09.436Z,2.78
2023-02-27T19:30:13.081Z,2.66
2023-02-27T19:33:15.389Z,2.67
2023-02-27T19:36:20.695Z,2.74
2023-02-27T19:39:23.074Z,2.66
2023-02-27T19:42:25.972Z,2.67
2023-02-27T19:45:29.017Z,2.77
2023-02-27T19:48:32.113Z,2.60
2023-02-27T19:51:34.497Z,2.55
2023-02-27T19:54:37.140Z,2.64
2023-02-27T19:57:39.596Z,2.43
2023-02-27T20:00:42.244Z,2.56
2023-02-27T20:03:45.187Z,2.54
2023-02-27T20:06:50.239Z,2.39
2023-02-27T20:09:52.899Z,2.42
2023-02-27T20:12:55.205Z,2.43
2023-02-27T20:15:59.985Z,2.36
2023-02-27T20:19:07.192Z,2.34
2023-02-27T20:22:10.157Z,2.47
2023-02-27T20:25:13.714Z,2.51
2023-02-27T20:28:16.542Z,2.36
2023-02-27T20:31:22.042Z,2.45
2023-02-27T20:34:26.526Z,2.48
2023-02-27T20:37:31.950Z,2.27
2023-02-27T20:40:34.995Z,2.18
2023-02-27T20:43:38.803Z,2.18
2023-02-27T20:46:43.447Z,2.21
2023-02-27T20:49:45.852Z,2.02
2023-02-27T20:52:53.592Z,2.22
2023-02-27T20:55:56.092Z,2.09
2023-02-27T20:59:01.232Z,2.02
2023-02-27T21:02:06.739Z,1.98
2023-02-27T21:05:09.570Z,2.05
2023-02-27T21:08:11.930Z,2.07
2023-02-27T21:11:27.352Z,1.94
2023-02-27T21:14:29.954Z,2.01
2023-02-27T21:17:33.246Z,2.03
2023-02-27T21:20:35.577Z,2.03
2023-02-27T21:24:05.144Z,2.07
2023-02-27T21:27:07.596Z,2.07
2023-02-27T21:30:11.067Z,2.08
2023-02-27T21:33:13.378Z,2.11
2023-02-27T21:36:16.848Z,2.08
2023-02-27T21:39:28.173Z,2.01
2023-02-27T21:42:31.873Z,1.91
2023-02-27T21:45:36.766Z,1.95
2023-02-27T21:48:39.820Z,2.06
2023-02-27T21:51:42.679Z,1.97
2023-02-27T21:54:45.524Z,1.92
2023-02-27T21:57:47.818Z,1.74
2023-02-27T22:00:50.832Z,1.98
2023-02-27T22:03:54.200Z,1.87
2023-02-27T22:06:56.954Z,1.87
2023-02-27T22:09:59.665Z,1.93
2023-02-27T22:13:02.498Z,1.93
2023-02-27T22:16:12.813Z,1.98
2023-02-27T22:19:19.948Z,1.99
2023-02-27T22:22:22.906Z,1.97
2023-02-27T22:25:25.255Z,1.96
2023-02-27T22:28:28.357Z,1.98
2023-02-27T22:31:34.395Z,2.03
2023-02-27T22:34:37.158Z,2.06
2023-02-27T22:37:39.525Z,1.96
2023-02-27T22:40:42.157Z,2.17
2023-02-27T22:43:47.580Z,2.10
2023-02-27T22:46:50.649Z,2.11
2023-02-27T22:49:53.036Z,2.07
2023-02-27T22:52:55.706Z,1.99
2023-02-27T22:55:58.142Z,2.08
2023-02-27T22:59:00.851Z,1.99
2023-02-27T23:02:03.247Z,1.81
2023-02-27T23:05:06.210Z,1.92
2023-02-27T23:08:08.529Z,1.88
2023-02-27T23:11:13.362Z,1.90
2023-02-27T23:14:16.436Z,1.86
2023-02-27T23:17:19.134Z,1.84
2023-02-27T23:20:21.502Z,1.73
2023-02-27T23:23:24.371Z,1.78
2023-02-27T23:26:29.564Z,1.77
2023-02-27T23:29:32.342Z,1.83
2023-02-27T23:32:43.442Z,1.93
2023-02-27T23:35:46.507Z,1.97
2023-02-27T23:38:49.239Z,1.83
2023-02-27T23:41:51.827Z,1.87
2023-02-27T23:45:32.921Z,2.10
2023-02-27T23:48:36.085Z,2.12
2023-02-27T23:51:38.541Z,1.97
2023-02-27T23:54:41.138Z,2.09
2023-02-27T23:57:43.613Z,1.93
